Time;durP1;ratioP1;P1;durP2;ratioP2;P2;SDS_P1;SDS_P2;PMS_P1;PMS_P2;Temp;Humidity;BMP_temperature;BMP_pressure;BME280_temperature;BME280_humidity;BME280_pressure;Samples;Min_cycle;Max_cycle;Signal;HPM_P1;HPM_P2
2022/05/03 00:00:20;;;;;;;;;;;;;;;7.56;100.00;95643.56;1034996;28;19916;-74
2022/05/03 00:00:53;;;;;;;;;;;;;;;7.53;100.00;95641.47;1031496;28;19976;-73
2022/05/03 00:01:24;;;;;;;;;;;;;;;7.51;100.00;95638.28;1036201;28;19956;-74
2022/05/03 00:01:57;;;;;;;;;;;;;;;7.50;100.00;95636.72;1039354;28;20665;-75
2022/05/03 00:02:27;;;;;;;;;;;;;;;7.47;100.00;95638.00;1042592;28;19909;-74
2022/05/03 00:03:00;;;;;;;;;;;;;;;7.49;100.00;95643.78;1038466;28;20295;-74
2022/05/03 00:03:39;;;;;;;;;;;;;;;7.47;100.00;95637.22;1034697;28;20383;-74
2022/05/03 00:04:12;;;;;;;;;;;;;;;7.45;100.00;95640.06;1038695;28;19909;-74
2022/05/03 00:04:54;;;;;;;;;;;;;;;7.47;100.00;95645.03;1034619;28;19905;-74
2022/05/03 00:05:29;;;;;;;;;;;;;;;7.47;100.00;95634.59;1030547;28;20042;-74
2022/05/03 00:05:59;;;;;;;;;;;;;;;7.50;100.00;95641.94;1023877;28;20383;-74
2022/05/03 00:06:33;;;;;;;;;;;;;;;7.52;100.00;95639.88;1032007;28;19949;-73
2022/05/03 00:07:19;;;;;;;;;;;;;;;7.55;100.00;95644.63;1030575;28;19914;-74
2022/05/03 00:07:49;;;;;;;;;;;;;;;7.52;100.00;95639.88;1033069;28;20691;-74
2022/05/03 00:08:20;;;;;;;;;;;;;;;7.53;100.00;95637.03;1032972;28;19917;-73
2022/05/03 00:08:52;;;;;;;;;;;;;;;7.54;100.00;95643.03;1030473;28;19996;-74
2022/05/03 00:09:29;;;;;;;;;;;;;;;7.54;100.00;95637.81;1034358;28;19917;-74
2022/05/03 00:09:59;;;;;;;;;;;;;;;7.52;100.00;95645.09;1036299;28;19913;-74
2022/05/03 00:10:33;;;;;;;;;;;;;;;7.53;100.00;95644.06;1039097;28;20422;-74
2022/05/03 00:11:35;;;;;;;;;;;;;;;7.51;100.00;95646.13;1037299;28;19917;-74
2022/05/03 00:12:06;;;;;;;;;;;;;;;7.51;100.00;95646.94;1030213;28;20379;-74
2022/05/03 00:12:46;;;;;;;;;;;;;;;7.51;100.00;95649.53;1036238;28;20004;-74
2022/05/03 00:13:21;;;;;;;;;;;;;;;7.51;100.00;95646.13;1034556;28;20466;-74
2022/05/03 00:13:54;;;;;;;;;;;;;;;7.50;100.00;95644.56;1026654;28;19925;-74
2022/05/03 00:14:26;;;;;;;;;;;;;;;7.49;100.00;95648.22;1026488;28;20009;-74
2022/05/03 00:14:56;;;;;;;;;;;;;;;7.50;100.00;95650.56;1030674;28;20726;-74
2022/05/03 00:15:26;;;;;;;;;;;;;;;7.32;100.00;95620.34;1031017;28;19924;-74
2022/05/03 00:15:57;;;;;;;;;;;;;;;7.50;100.00;95647.16;1032373;28;19920;-74
2022/05/03 00:16:27;;;;;;;;;;;;;;;7.47;100.00;95648.44;1030035;28;19977;-74
2022/05/03 00:16:58;;;;;;;;;;;;;;;7.48;100.00;95644.03;1026241;28;20534;-75
2022/05/03 00:17:28;;;;;;;;;;;;;;;7.46;100.00;95651.31;1030583;28;20427;-74
2022/05/03 00:17:58;;;;;;;;;;;;;;;7.47;100.00;95655.47;1022711;29;19928;-74
2022/05/03 00:18:29;;;;;;;;;;;;;;;7.46;100.00;95646.09;1030457;28;19918;-74
2022/05/03 00:19:00;;;;;;;;;;;;;;;7.44;100.00;95646.31;1026474;28;19961;-74
2022/05/03 00:19:30;;;;;;;;;;;;;;;7.42;100.00;95647.63;1033152;28;20529;-73
2022/05/03 00:20:02;;;;;;;;;;;;;;;7.42;100.00;95651.00;1030574;28;19925;-74
2022/05/03 00:20:32;;;;;;;;;;;;;;;7.40;100.00;95647.06;1033867;28;19932;-74
2022/05/03 00:21:03;;;;;;;;;;;;;;;7.39;100.00;95645.50;1030494;28;19940;-74
2022/05/03 00:21:34;;;;;;;;;;;;;;;7.39;100.00;95646.28;1026585;28;19922;-75
2022/05/03 00:22:04;;;;;;;;;;;;;;;7.42;100.00;95650.22;1030936;28;19964;-74
2022/05/03 00:22:43;;;;;;;;;;;;;;;7.42;100.00;95645.00;1034393;28;20390;-74
2022/05/03 00:23:14;;;;;;;;;;;;;;;7.42;100.00;95645.00;1026442;28;19941;-74
2022/05/03 00:23:44;;;;;;;;;;;;;;;7.42;100.00;95645.00;1018618;29;19911;-74
2022/05/03 00:24:14;;;;;;;;;;;;;;;7.39;100.00;95645.50;1022711;29;19910;-74
2022/05/03 00:24:45;;;;;;;;;;;;;;;7.38;100.00;95644.69;1026440;28;20341;-74
2022/05/03 00:25:15;;;;;;;;;;;;;;;7.37;100.00;95637.09;1026542;28;20376;-74
2022/05/03 00:25:46;;;;;;;;;;;;;;;7.36;100.00;95640.75;1030675;28;19924;-74
2022/05/03 00:26:16;;;;;;;;;;;;;;;7.35;100.00;95639.97;1025721;28;19925;-74
2022/05/03 00:26:46;;;;;;;;;;;;;;;7.34;100.00;95640.97;1025876;28;20263;-74
2022/05/03 00:27:17;;;;;;;;;;;;;;;7.31;100.00;95642.28;1022538;28;19919;-74
2022/05/03 00:27:47;;;;;;;;;;;;;;;7.29;100.00;95640.94;1026841;28;19981;-74
2022/05/03 00:28:18;;;;;;;;;;;;;;;7.29;100.00;95638.31;1038279;28;20000;-74
2022/05/03 00:28:49;;;;;;;;;;;;;;;7.27;100.00;95640.38;1034776;28;19948;-74
2022/05/03 00:29:19;;;;;;;;;;;;;;;7.26;100.00;95633.59;1038702;28;19906;-74
2022/05/03 00:29:50;;;;;;;;;;;;;;;7.25;100.00;95640.63;1030765;28;20435;-74
2022/05/03 00:30:21;;;;;;;;;;;;;;;7.23;100.00;95641.91;1026823;28;19910;-74
2022/05/03 00:30:51;;;;;;;;;;;;;;;7.24;100.00;95633.03;1034980;28;19909;-74
2022/05/03 00:31:22;;;;;;;;;;;;;;;7.21;100.00;95638.75;1034610;28;19993;-73
2022/05/03 00:31:52;;;;;;;;;;;;;;;7.19;100.00;95639.00;1030486;28;20388;-74
2022/05/03 00:32:28;;;;;;;;;;;;;;;7.19;100.00;95639.00;1030743;28;19913;-74
2022/05/03 00:32:59;;;;;;;;;;;;;;;7.21;100.00;95629.13;1030874;28;19925;-74
2022/05/03 00:33:29;;;;;;;;;;;;;;;7.22;100.00;95640.34;1032020;28;19910;-74
2022/05/03 00:34:00;;;;;;;;;;;;;;;7.21;100.00;95639.56;1038881;28;19952;-75
2022/05/03 00:34:32;;;;;;;;;;;;;;;6.89;100.00;95583.84;1033709;28;19918;-74
2022/05/03 00:35:02;;;;;;;;;;;;;;;7.22;100.00;95633.28;1034978;28;20350;-74
2022/05/03 00:35:32;;;;;;;;;;;;;;;7.23;100.00;95634.84;1034424;28;20004;-74
2022/05/03 00:36:03;;;;;;;;;;;;;;;7.25;100.00;95643.25;1033472;28;19914;-74
2022/05/03 00:36:33;;;;;;;;;;;;;;;7.25;100.00;95635.41;1025804;28;19914;-74
2022/05/03 00:37:03;;;;;;;;;;;;;;;7.27;100.00;95635.94;1029878;28;20319;-74
2022/05/03 00:37:33;;;;;;;;;;;;;;;7.29;100.00;95640.94;1034464;28;20410;-74
2022/05/03 00:38:04;;;;;;;;;;;;;;;7.29;100.00;95639.09;1034522;28;19941;-74
2022/05/03 00:38:34;;;;;;;;;;;;;;;7.33;100.00;95637.59;1030464;28;19933;-74
2022/05/03 00:39:05;;;;;;;;;;;;;;;7.41;100.00;95638.19;1038882;28;19967;-74
2022/05/03 00:39:35;;;;;;;;;;;;;;;7.45;100.00;95644.50;1038368;28;19909;-74
2022/05/03 00:40:06;;;;;;;;;;;;;;;7.47;100.00;95647.66;1034445;28;19917;-74
2022/05/03 00:40:36;;;;;;;;;;;;;;;7.48;100.00;95638.81;1034451;28;20651;-74
2022/05/03 00:41:07;;;;;;;;;;;;;;;7.52;100.00;95642.50;1030761;28;19914;-75
2022/05/03 00:41:41;;;;;;;;;;;;;;;7.52;100.00;95639.88;1034812;28;19909;-74
2022/05/03 00:42:18;;;;;;;;;;;;;;;7.53;100.00;95638.84;1036835;28;19995;-74
2022/05/03 00:42:52;;;;;;;;;;;;;;;7.55;100.00;95644.63;1034655;28;19909;-74
2022/05/03 00:43:25;;;;;;;;;;;;;;;7.55;100.00;95642.00;1036868;28;20330;-74
2022/05/03 00:45:05;;;;;;;;;;;;;;;7.52;100.00;95634.66;1016945;29;19926;-74
2022/05/03 00:45:42;;;;;;;;;;;;;;;7.52;100.00;95639.88;1028307;28;19969;-74
2022/05/03 00:46:16;;;;;;;;;;;;;;;7.50;100.00;95636.72;1039867;28;19921;-74
2022/05/03 00:46:46;;;;;;;;;;;;;;;7.50;100.00;95636.72;1033938;28;19920;-74
2022/05/03 00:47:18;;;;;;;;;;;;;;;7.50;100.00;95637.50;1036586;28;19928;-74
2022/05/03 00:47:57;;;;;;;;;;;;;;;7.50;100.00;95632.28;1038621;28;19921;-74
2022/05/03 00:48:39;;;;;;;;;;;;;;;7.50;100.00;95636.72;1042791;28;20424;-74
2022/05/03 00:49:22;;;;;;;;;;;;;;;7.49;100.00;95628.09;1046008;28;19924;-73
2022/05/03 00:49:59;;;;;;;;;;;;;;;7.49;100.00;95630.72;1034417;28;19917;-74
2022/05/03 00:50:36;;;;;;;;;;;;;;;7.50;100.00;95632.28;1034247;28;19917;-74
2022/05/03 00:51:12;;;;;;;;;;;;;;;7.50;100.00;95631.50;1028320;28;19992;-74
2022/05/03 00:51:44;;;;;;;;;;;;;;;7.49;100.00;95635.94;1033124;28;19968;-74
2022/05/03 00:52:22;;;;;;;;;;;;;;;7.49;100.00;95635.94;1032469;28;19917;-74
2022/05/03 00:52:58;;;;;;;;;;;;;;;7.48;100.00;95636.19;1034635;28;19925;-74
2022/05/03 00:53:36;;;;;;;;;;;;;;;7.29;100.00;95610.41;1032903;28;20028;-75
2022/05/03 00:54:27;;;;;;;;;;;;;;;7.49;100.00;95635.16;1034605;28;19921;-74
2022/05/03 00:55:15;;;;;;;;;;;;;;;7.48;100.00;95633.59;1034441;28;19918;-74
2022/05/03 00:55:59;;;;;;;;;;;;;;;7.48;100.00;95633.59;1039568;28;19912;-74
2022/05/03 00:56:40;;;;;;;;;;;;;;;7.49;100.00;95630.72;1037403;28;19932;-74
2022/05/03 00:57:10;;;;;;;;;;;;;;;7.51;100.00;95633.88;1037523;28;19917;-74
2022/05/03 00:57:43;;;;;;;;;;;;;;;7.51;100.00;95633.06;1038132;28;19913;-75
2022/05/03 00:58:32;;;;;;;;;;;;;;;7.51;100.00;95639.09;1040665;28;19992;-74
2022/05/03 00:59:06;;;;;;;;;;;;;;;7.51;100.00;95627.84;1039902;28;19913;-75
2022/05/03 00:59:36;;;;;;;;;;;;;;;7.52;100.00;95629.44;1046840;28;19916;-74
2022/05/03 01:00:10;;;;;;;;;;;;;;;7.52;100.00;95634.66;1047143;28;19947;-75
2022/05/03 01:00:46;;;;;;;;;;;;;;;7.52;100.00;95629.44;1044770;28;19920;-75
2022/05/03 01:01:35;;;;;;;;;;;;;;;7.54;100.00;95632.56;1037492;28;19913;-74
2022/05/03 01:02:05;;;;;;;;;;;;;;;7.53;100.00;95625.78;1034745;28;19914;-75
2022/05/03 01:02:42;;;;;;;;;;;;;;;7.53;100.00;95626.56;1034617;28;19921;-74
2022/05/03 01:03:18;;;;;;;;;;;;;;;7.53;100.00;95628.41;1033829;28;19971;-75
2022/05/03 01:04:07;;;;;;;;;;;;;;;7.53;100.00;95631.00;1030592;28;19964;-74
2022/05/03 01:04:39;;;;;;;;;;;;;;;7.51;100.00;95623.44;1026318;28;19926;-75
2022/05/03 01:05:10;;;;;;;;;;;;;;;7.52;100.00;95629.44;1033980;28;19917;-74
2022/05/03 01:05:59;;;;;;;;;;;;;;;7.51;100.00;95623.44;1038363;28;20338;-74
2022/05/03 01:06:29;;;;;;;;;;;;;;;7.53;100.00;95626.56;1043572;28;19927;-74
2022/05/03 01:07:13;;;;;;;;;;;;;;;7.54;100.00;95622.13;1044148;28;19999;-74
2022/05/03 01:07:56;;;;;;;;;;;;;;;7.55;100.00;95624.53;1042512;28;19909;-75
2022/05/03 01:08:26;;;;;;;;;;;;;;;7.58;100.00;95633.69;1038657;28;19909;-75
2022/05/03 01:08:56;;;;;;;;;;;;;;;7.60;100.00;95636.03;1034338;28;19913;-74
2022/05/03 01:09:34;;;;;;;;;;;;;;;7.61;100.00;95627.94;1034458;28;19910;-74
2022/05/03 01:10:04;;;;;;;;;;;;;;;7.64;100.00;95631.91;1030545;28;20615;-75
2022/05/03 01:10:53;;;;;;;;;;;;;;;7.64;100.00;95630.06;1032091;28;19949;-75
2022/05/03 01:11:26;;;;;;;;;;;;;;;7.66;100.00;95629.84;1034515;28;19905;-75
2022/05/03 01:11:59;;;;;;;;;;;;;;;7.67;100.00;95629.59;1033723;28;20798;-75
2022/05/03 01:12:29;;;;;;;;;;;;;;;7.68;100.00;95633.78;1039274;28;19968;-74
2022/05/03 01:13:11;;;;;;;;;;;;;;;7.70;100.00;95629.09;1035941;28;19963;-75
2022/05/03 01:13:45;;;;;;;;;;;;;;;7.71;100.00;95627.25;1041429;28;20032;-74
2022/05/03 01:14:31;;;;;;;;;;;;;;;7.71;100.00;95633.31;1041389;28;19917;-75
2022/05/03 01:15:05;;;;;;;;;;;;;;;7.74;100.00;95624.94;1039761;28;20008;-75
2022/05/03 01:15:39;;;;;;;;;;;;;;;7.74;100.00;95627.56;1039709;28;20237;-75
2022/05/03 01:16:31;;;;;;;;;;;;;;;7.76;100.00;95627.31;1042810;28;19917;-74
2022/05/03 01:17:20;;;;;;;;;;;;;;;7.77;100.00;95631.50;1039340;28;19909;-75
2022/05/03 01:18:05;;;;;;;;;;;;;;;7.79;100.00;95635.44;1035081;28;19910;-74
2022/05/03 01:18:56;;;;;;;;;;;;;;;7.80;100.00;95634.41;1039721;28;19906;-73
2022/05/03 01:19:37;;;;;;;;;;;;;;;7.83;100.00;95635.75;1039851;28;19959;-74
2022/05/03 01:20:08;;;;;;;;;;;;;;;7.84;100.00;95636.53;1035131;28;19909;-74
2022/05/03 01:20:38;;;;;;;;;;;;;;;7.84;100.00;95637.31;1035381;28;19984;-74
2022/05/03 01:21:11;;;;;;;;;;;;;;;7.87;100.00;95636.03;1036654;28;19906;-75
2022/05/03 01:22:03;;;;;;;;;;;;;;;7.87;100.00;95634.22;1040191;28;20446;-74
2022/05/03 01:22:52;;;;;;;;;;;;;;;7.89;100.00;95634.75;1035786;28;19909;-73
2022/05/03 01:23:41;;;;;;;;;;;;;;;7.90;100.00;95628.50;1039388;28;20492;-75
2022/05/03 01:24:18;;;;;;;;;;;;;;;7.92;100.00;95634.28;1040996;28;19909;-74
2022/05/03 01:24:57;;;;;;;;;;;;;;;7.92;100.00;95639.50;1046927;28;19954;-74
2022/05/03 01:25:36;;;;;;;;;;;;;;;7.94;100.00;95641.84;1039848;28;19916;-76
2022/05/03 01:26:07;;;;;;;;;;;;;;;7.95;100.00;95640.84;1038562;28;19916;-75
2022/05/03 01:26:37;;;;;;;;;;;;;;;7.96;100.00;95639.78;1037120;28;19971;-75
2022/05/03 01:27:26;;;;;;;;;;;;;;;7.95;100.00;95635.59;1039432;28;19940;-74
2022/05/03 01:28:22;;;;;;;;;;;;;;;7.97;100.00;95638.75;1039100;28;20341;-74
2022/05/03 01:29:01;;;;;;;;;;;;;;;7.97;100.00;95643.97;1033789;28;19995;-74
2022/05/03 01:29:35;;;;;;;;;;;;;;;7.80;100.00;95605.69;1035214;28;19917;-74
2022/05/03 01:30:05;;;;;;;;;;;;;;;7.98;100.00;95627.25;1036983;28;20115;-74
2022/05/03 01:30:35;;;;;;;;;;;;;;;7.98;100.00;95633.28;1040365;28;19921;-74
2022/05/03 01:31:09;;;;;;;;;;;;;;;7.98;100.00;95638.50;1039323;28;19951;-75
2022/05/03 01:31:39;;;;;;;;;;;;;;;7.98;100.00;95635.91;1038092;28;19956;-74
2022/05/03 01:32:10;;;;;;;;;;;;;;;7.98;100.00;95637.69;1035015;28;19972;-74
2022/05/03 01:32:42;;;;;;;;;;;;;;;7.96;100.00;95637.19;1031632;28;20412;-75
2022/05/03 01:33:14;;;;;;;;;;;;;;;7.97;100.00;95636.13;1039384;28;20472;-74
2022/05/03 01:33:47;;;;;;;;;;;;;;;7.96;100.00;95637.19;1035264;28;19918;-74
2022/05/03 01:34:18;;;;;;;;;;;;;;;7.95;100.00;95639.00;1035052;28;19952;-74
2022/05/03 01:34:49;;;;;;;;;;;;;;;7.94;100.00;95642.63;1027046;28;19920;-75
2022/05/03 01:35:20;;;;;;;;;;;;;;;7.94;100.00;95636.63;1042342;28;19923;-75
2022/05/03 01:35:51;;;;;;;;;;;;;;;7.93;100.00;95637.66;1042131;28;20023;-74
2022/05/03 01:36:27;;;;;;;;;;;;;;;7.92;100.00;95639.50;1026621;28;19928;-74
2022/05/03 01:37:00;;;;;;;;;;;;;;;7.91;100.00;95639.72;1030931;28;19918;-75
2022/05/03 01:37:46;;;;;;;;;;;;;;;7.91;100.00;95642.34;1027191;28;20493;-74
2022/05/03 01:38:18;;;;;;;;;;;;;;;7.90;100.00;95641.56;1040039;28;19920;-75
2022/05/03 01:39:02;;;;;;;;;;;;;;;7.88;100.00;95632.38;1040499;28;20044;-74
2022/05/03 01:39:36;;;;;;;;;;;;;;;7.88;100.00;95638.41;1043122;28;19917;-74
2022/05/03 01:40:07;;;;;;;;;;;;;;;7.87;100.00;95638.66;1036526;28;19924;-75
2022/05/03 01:40:37;;;;;;;;;;;;;;;7.87;100.00;95636.03;1035094;28;20011;-75
2022/05/03 01:41:08;;;;;;;;;;;;;;;7.87;100.00;95636.03;1030952;28;20017;-75
2022/05/03 01:41:41;;;;;;;;;;;;;;;7.86;100.00;95635.25;1031405;28;19972;-75
2022/05/03 01:42:30;;;;;;;;;;;;;;;7.85;100.00;95633.69;1038504;28;20480;-74
2022/05/03 01:43:07;;;;;;;;;;;;;;;7.85;100.00;95635.53;1039131;28;20028;-75
2022/05/03 01:43:46;;;;;;;;;;;;;;;7.82;100.00;95638.63;1036267;28;20384;-75
2022/05/03 01:44:29;;;;;;;;;;;;;;;7.81;100.00;95632.59;1038897;28;19980;-75
2022/05/03 01:45:03;;;;;;;;;;;;;;;7.78;100.00;95633.09;1035453;28;20306;-74
2022/05/03 01:45:49;;;;;;;;;;;;;;;7.78;100.00;95633.88;1046129;28;19979;-74
2022/05/03 01:46:23;;;;;;;;;;;;;;;7.57;100.00;95596.31;1038323;28;19921;-74
2022/05/03 01:46:55;;;;;;;;;;;;;;;7.77;100.00;95631.50;1031941;28;19918;-74
2022/05/03 01:47:26;;;;;;;;;;;;;;;7.77;100.00;95627.06;1032428;28;19996;-74
2022/05/03 01:48:14;;;;;;;;;;;;;;;7.75;100.00;95630.97;1039854;28;19909;-74
2022/05/03 01:50:42;;;;;;;;;;;;;;;7.74;100.00;95632.78;1034004;28;19956;-74
2022/05/03 01:51:17;;;;;;;;;;;;;;;7.73;100.00;95628.59;1041766;28;20291;-74
2022/05/03 01:52:06;;;;;;;;;;;;;;;7.74;100.00;95632.78;1039369;28;19909;-75
2022/05/03 01:52:46;;;;;;;;;;;;;;;7.72;100.00;95632.25;1034917;28;19910;-74
2022/05/03 01:53:31;;;;;;;;;;;;;;;7.72;100.00;95627.03;1035650;28;19937;-74
2022/05/03 01:54:10;;;;;;;;;;;;;;;7.71;100.00;95622.03;1038687;28;19906;-74
2022/05/03 01:54:44;;;;;;;;;;;;;;;7.71;100.00;95622.84;1043078;28;19905;-74
2022/05/03 01:55:32;;;;;;;;;;;;;;;7.70;100.00;95631.69;1040688;28;19909;-74
2022/05/03 01:56:22;;;;;;;;;;;;;;;7.69;100.00;95632.75;1040039;28;20501;-74
2022/05/03 01:57:09;;;;;;;;;;;;;;;7.70;100.00;95636.94;1043409;28;20753;-75
2022/05/03 01:58:00;;;;;;;;;;;;;;;7.69;100.00;95624.91;1048270;28;20618;-74
2022/05/03 01:59:09;;;;;;;;;;;;;;;7.68;100.00;95628.56;1034663;28;19960;-75
2022/05/03 01:59:51;;;;;;;;;;;;;;;7.69;100.00;95627.53;1030688;28;19917;-75
2022/05/03 02:00:22;;;;;;;;;;;;;;;7.71;100.00;95632.47;1031711;28;19910;-75
2022/05/03 02:00:58;;;;;;;;;;;;;;;7.70;100.00;95631.69;1031468;28;19910;-74
2022/05/03 02:01:28;;;;;;;;;;;;;;;7.69;100.00;95627.53;1027571;28;20137;-75
2022/05/03 02:02:37;;;;;;;;;;;;;;;7.67;100.00;95624.34;1027618;28;19973;-74
2022/05/03 02:03:19;;;;;;;;;;;;;;;7.66;100.00;95625.41;1024487;28;20340;-74
2022/05/03 02:03:55;;;;;;;;;;;;;;;7.65;100.00;95623.84;1031582;28;19937;-75
2022/05/03 02:04:31;;;;;;;;;;;;;;;7.66;100.00;95624.63;1019564;29;19910;-74
2022/05/03 02:05:05;;;;;;;;;;;;;;;7.64;100.00;95622.25;1019619;29;19911;-74
2022/05/03 02:05:54;;;;;;;;;;;;;;;7.63;100.00;95625.88;1011422;29;19911;-75
2022/05/03 02:06:45;;;;;;;;;;;;;;;7.62;100.00;95624.31;1018713;29;19907;-74
2022/05/03 02:07:34;;;;;;;;;;;;;;;7.60;100.00;95621.16;1016180;29;19923;-75
2022/05/03 02:08:04;;;;;;;;;;;;;;;7.61;100.00;95621.94;1019605;29;19915;-74
2022/05/03 02:08:41;;;;;;;;;;;;;;;7.59;100.00;95624.81;1019580;29;20376;-74
2022/05/03 02:09:11;;;;;;;;;;;;;;;7.60;100.00;95620.38;1038890;28;19924;-75
2022/05/03 02:10:00;;;;;;;;;;;;;;;7.59;100.00;95624.81;1044013;28;19913;-74
2022/05/03 02:10:39;;;;;;;;;;;;;;;7.59;100.00;95618.81;1044028;28;19916;-74
2022/05/03 02:11:12;;;;;;;;;;;;;;;7.58;100.00;95618.03;1036723;28;19917;-74
2022/05/03 02:11:58;;;;;;;;;;;;;;;7.58;100.00;95623.25;1038933;28;20012;-74
2022/05/03 02:12:28;;;;;;;;;;;;;;;7.59;100.00;95624.81;1040179;28;19928;-74
2022/05/03 02:13:02;;;;;;;;;;;;;;;7.57;100.00;95619.03;1048144;28;19919;-74
2022/05/03 02:14:43;;;;;;;;;;;;;;;7.57;100.00;95624.25;1043920;28;19917;-75
2022/05/03 02:14:47;;;;;;;;;;;;;;;7.57;100.00;95621.66;1043960;28;19917;-75
2022/05/03 02:15:19;;;;;;;;;;;;;;;7.53;100.00;95620.56;1040002;28;19913;-74
2022/05/03 02:15:50;;;;;;;;;;;;;;;7.53;100.00;95620.56;1042987;28;19917;-74
2022/05/03 02:16:22;;;;;;;;;;;;;;;7.50;100.00;95619.22;1039361;28;19977;-74
2022/05/03 02:16:57;;;;;;;;;;;;;;;7.48;100.00;95617.91;1035563;28;19952;-74
2022/05/03 02:17:46;;;;;;;;;;;;;;;7.45;100.00;95618.41;1031478;28;19918;-74
2022/05/03 02:18:17;;;;;;;;;;;;;;;7.42;100.00;95618.91;1030920;28;19917;-75
2022/05/03 02:18:51;;;;;;;;;;;;;;;7.39;100.00;95620.16;1039106;28;19924;-75
2022/05/03 02:19:27;;;;;;;;;;;;;;;7.40;100.00;95616.50;1039107;28;20503;-75
2022/05/03 02:20:12;;;;;;;;;;;;;;;7.37;100.00;95616.22;1036964;28;19917;-74
2022/05/03 02:20:43;;;;;;;;;;;;;;;7.33;100.00;95615.91;1032702;28;20478;-75
2022/05/03 02:21:17;;;;;;;;;;;;;;;7.30;100.00;95622.41;1040919;28;19913;-74
2022/05/03 02:21:52;;;;;;;;;;;;;;;7.28;100.00;95611.44;1046692;28;20302;-75
2022/05/03 02:22:41;;;;;;;;;;;;;;;7.26;100.00;95625.75;1048239;28;20016;-74
2022/05/03 02:23:15;;;;;;;;;;;;;;;7.23;100.00;95621.81;1043387;28;19920;-74
2022/05/03 02:23:45;;;;;;;;;;;;;;;7.23;100.00;95619.19;1035849;28;20390;-74
2022/05/03 02:24:21;;;;;;;;;;;;;;;7.21;100.00;95621.28;1032435;28;19917;-75
2022/05/03 02:25:10;;;;;;;;;;;;;;;7.19;100.00;95620.72;1035502;28;20395;-74
2022/05/03 02:25:52;;;;;;;;;;;;;;;7.15;100.00;95619.66;1035269;28;19976;-75
2022/05/03 02:26:41;;;;;;;;;;;;;;;7.12;100.00;95616.72;1043295;28;19920;-74
2022/05/03 02:27:13;;;;;;;;;;;;;;;7.13;100.00;95613.88;1043939;28;20480;-74
2022/05/03 02:27:48;;;;;;;;;;;;;;;7.14;100.00;95627.69;1035794;28;19917;-75
2022/05/03 02:28:37;;;;;;;;;;;;;;;7.15;100.00;95619.66;1028209;28;19919;-75
2022/05/03 02:29:10;;;;;;;;;;;;;;;7.16;100.00;95618.59;1031744;28;19961;-74
2022/05/03 02:29:44;;;;;;;;;;;;;;;7.16;100.00;95615.22;1039062;28;19991;-75
2022/05/03 02:30:18;;;;;;;;;;;;;;;7.17;100.00;95616.78;1042348;28;20422;-74
2022/05/03 02:30:48;;;;;;;;;;;;;;;7.13;100.00;95618.31;1038220;28;19913;-74
2022/05/03 02:31:21;;;;;;;;;;;;;;;7.12;100.00;95619.34;1038207;28;19920;-75
2022/05/03 02:32:11;;;;;;;;;;;;;;;7.09;100.00;95618.00;1045590;28;19913;-75
2022/05/03 02:32:44;;;;;;;;;;;;;;;7.19;100.00;95614.72;1046999;28;20358;-75
2022/05/03 02:33:29;;;;;;;;;;;;;;;7.22;100.00;95616.84;1036047;28;19917;-75
2022/05/03 02:34:18;;;;;;;;;;;;;;;7.24;100.00;95618.19;1035730;28;19910;-75
2022/05/03 02:34:48;;;;;;;;;;;;;;;7.24;100.00;95612.97;1032198;28;20000;-74
2022/05/03 02:35:19;;;;;;;;;;;;;;;7.21;100.00;95617.88;1039692;28;19919;-74
2022/05/03 02:35:51;;;;;;;;;;;;;;;7.19;100.00;95615.50;1039792;28;19920;-74
2022/05/03 02:36:22;;;;;;;;;;;;;;;7.20;100.00;95618.91;1035035;28;19910;-72
2022/05/03 02:37:19;;;;;;;;;;;;;;;7.20;100.00;95617.06;1037985;28;20370;-74
2022/05/03 02:37:56;;;;;;;;;;;;;;;7.21;100.00;95618.69;1037724;28;19960;-74
2022/05/03 02:38:31;;;;;;;;;;;;;;;7.20;100.00;95624.91;1034849;28;19906;-75
2022/05/03 02:39:04;;;;;;;;;;;;;;;7.18;100.00;95624.38;1039832;28;19949;-75
2022/05/03 02:39:34;;;;;;;;;;;;;;;7.13;100.00;95616.47;1035687;28;19952;-75
2022/05/03 02:40:08;;;;;;;;;;;;;;;7.12;100.00;95624.56;1039707;28;19913;-74
2022/05/03 02:40:40;;;;;;;;;;;;;;;7.10;100.00;95624.78;1028965;28;19910;-75
2022/05/03 02:41:10;;;;;;;;;;;;;;;7.07;100.00;95622.66;1031643;28;19940;-74
2022/05/03 02:41:41;;;;;;;;;;;;;;;7.05;100.00;95622.13;1028410;28;19989;-75
2022/05/03 02:42:11;;;;;;;;;;;;;;;7.03;100.00;95621.56;1028069;28;19923;-74
2022/05/03 02:42:41;;;;;;;;;;;;;;;7.01;100.00;95623.66;1027620;28;19918;-74
2022/05/03 02:43:12;;;;;;;;;;;;;;;6.98;100.00;95627.53;1027623;28;19918;-74
2022/05/03 02:43:43;;;;;;;;;;;;;;;6.97;100.00;95627.75;1031661;28;19910;-75
2022/05/03 02:44:15;;;;;;;;;;;;;;;6.92;100.00;95615.44;1031678;28;20387;-74
2022/05/03 02:44:46;;;;;;;;;;;;;;;6.91;100.00;95619.09;1027664;28;20493;-75
2022/05/03 02:45:19;;;;;;;;;;;;;;;6.90;100.00;95624.53;1031487;28;19978;-75
2022/05/03 02:45:53;;;;;;;;;;;;;;;6.87;100.00;95617.97;1035627;28;19916;-74
2022/05/03 02:46:26;;;;;;;;;;;;;;;6.86;100.00;95621.63;1035173;28;19997;-74
2022/05/03 02:46:57;;;;;;;;;;;;;;;6.83;100.00;95617.69;1028009;28;19998;-75
2022/05/03 02:47:45;;;;;;;;;;;;;;;6.81;100.00;95614.53;1028467;28;19914;-74
2022/05/03 02:48:18;;;;;;;;;;;;;;;6.79;100.00;95615.81;1034465;28;20394;-74
2022/05/03 02:48:52;;;;;;;;;;;;;;;6.77;100.00;95612.63;1036293;28;20926;-75
2022/05/03 02:49:28;;;;;;;;;;;;;;;6.75;100.00;95618.09;1037676;28;20401;-75
2022/05/03 02:50:03;;;;;;;;;;;;;;;6.72;100.00;95613.38;1033233;28;19910;-74
2022/05/03 02:50:39;;;;;;;;;;;;;;;6.72;100.00;95610.75;1031537;28;19953;-75
2022/05/03 02:51:09;;;;;;;;;;;;;;;6.71;100.00;95613.63;1027459;28;20455;-74
2022/05/03 02:51:42;;;;;;;;;;;;;;;6.70;100.00;95610.19;1034432;28;19944;-74
2022/05/03 02:52:22;;;;;;;;;;;;;;;6.71;100.00;95614.41;1032685;28;19917;-75
2022/05/03 02:53:01;;;;;;;;;;;;;;;6.67;100.00;95608.06;1033171;28;19914;-74
2022/05/03 02:53:37;;;;;;;;;;;;;;;6.65;100.00;95614.59;1027469;28;20331;-74
2022/05/03 02:54:15;;;;;;;;;;;;;;;6.64;100.00;95612.97;1035471;28;19959;-75
2022/05/03 02:55:06;;;;;;;;;;;;;;;6.62;100.00;95608.03;1027597;28;20287;-74
2022/05/03 02:55:42;;;;;;;;;;;;;;;6.58;100.00;95614.75;1031425;28;20717;-74
2022/05/03 02:56:22;;;;;;;;;;;;;;;6.59;100.00;95611.88;1031625;28;19913;-75
2022/05/03 02:56:57;;;;;;;;;;;;;;;6.57;100.00;95616.56;1047750;28;19958;-74
2022/05/03 02:57:30;;;;;;;;;;;;;;;6.57;100.00;95613.97;1043619;28;20271;-74
2022/05/03 02:58:00;;;;;;;;;;;;;;;6.57;100.00;95613.16;1043885;28;19909;-74
2022/05/03 02:58:37;;;;;;;;;;;;;;;6.57;100.00;95613.16;1042778;28;19935;-74
2022/05/03 02:59:11;;;;;;;;;;;;;;;6.55;100.00;95613.41;1045006;28;19969;-75
2022/05/03 03:01:51;;;;;;;;;;;;;;;6.55;100.00;95616.00;1038571;28;19920;-75
2022/05/03 03:02:22;;;;;;;;;;;;;;;6.53;100.00;95614.66;1032322;28;19910;-75
2022/05/03 03:03:04;;;;;;;;;;;;;;;6.53;100.00;95619.88;1030785;28;20076;-74
2022/05/03 03:03:36;;;;;;;;;;;;;;;6.50;100.00;95613.31;1034640;28;19913;-74
2022/05/03 03:04:20;;;;;;;;;;;;;;;6.50;100.00;95617.75;1036740;28;20650;-74
2022/05/03 03:04:57;;;;;;;;;;;;;;;6.48;100.00;95617.22;1030738;28;19910;-74
2022/05/03 03:05:27;;;;;;;;;;;;;;;6.47;100.00;95613.81;1026847;28;19914;-75
2022/05/03 03:06:01;;;;;;;;;;;;;;;6.44;100.00;95616.91;1027199;28;19914;-75
2022/05/03 03:06:32;;;;;;;;;;;;;;;6.44;100.00;95618.69;1026857;28;19918;-74
2022/05/03 03:07:06;;;;;;;;;;;;;;;6.41;100.00;95614.78;1023586;28;20017;-75
2022/05/03 03:07:49;;;;;;;;;;;;;;;6.41;100.00;95614.00;1022495;28;19930;-74
2022/05/03 03:08:19;;;;;;;;;;;;;;;6.41;100.00;95614.78;1020930;29;20384;-75
2022/05/03 03:08:54;;;;;;;;;;;;;;;6.24;100.00;95583.53;1030596;28;19916;-74
2022/05/03 03:09:36;;;;;;;;;;;;;;;6.44;100.00;95613.50;1035238;28;19910;-75
2022/05/03 03:10:07;;;;;;;;;;;;;;;6.42;100.00;95615.56;1040919;28;19913;-75
2022/05/03 03:10:43;;;;;;;;;;;;;;;6.41;100.00;95620.00;1036745;28;19905;-75
2022/05/03 03:11:22;;;;;;;;;;;;;;;6.40;100.00;95609.78;1037222;28;19909;-74
2022/05/03 03:11:58;;;;;;;;;;;;;;;6.40;100.00;95610.56;1030632;28;19910;-74
2022/05/03 03:12:28;;;;;;;;;;;;;;;6.40;100.00;95612.38;1027584;28;19910;-75
2022/05/03 03:13:14;;;;;;;;;;;;;;;6.40;100.00;95617.59;1030764;28;20004;-75
2022/05/03 03:13:50;;;;;;;;;;;;;;;6.41;100.00;95617.38;1036462;28;19909;-74